createdAt,value
2022-12-03T00:00:52.498Z,1.63
2022-12-03T00:03:53.921Z,1.60
2022-12-03T00:06:55.282Z,1.59
2022-12-03T00:09:56.559Z,1.57
2022-12-03T00:12:57.847Z,1.56
2022-12-03T00:15:59.230Z,1.56
2022-12-03T00:19:00.520Z,1.55
2022-12-03T00:22:01.787Z,1.52
2022-12-03T00:25:03.062Z,1.51
2022-12-03T00:28:04.401Z,1.46
2022-12-03T00:31:06.208Z,1.45
2022-12-03T00:34:07.488Z,1.42
2022-12-03T00:37:08.760Z,1.41
2022-12-03T00:40:11.053Z,1.38
2022-12-03T00:43:12.319Z,1.36
2022-12-03T00:46:18.156Z,1.33
2022-12-03T00:49:22.249Z,1.34
2022-12-03T00:52:23.492Z,1.31
2022-12-03T00:55:24.718Z,1.32
2022-12-03T00:58:25.957Z,1.29
2022-12-03T01:01:27.254Z,1.28
2022-12-03T01:04:28.581Z,1.27
2022-12-03T01:07:29.910Z,1.24
2022-12-03T01:10:31.206Z,1.25
2022-12-03T01:13:32.470Z,1.24
2022-12-03T01:16:33.877Z,1.22
2022-12-03T01:19:35.348Z,1.21
2022-12-03T01:22:36.629Z,1.20
2022-12-03T01:25:37.881Z,1.19
2022-12-03T01:28:39.120Z,1.19
2022-12-03T01:31:40.457Z,1.17
2022-12-03T01:34:42.174Z,1.16
2022-12-03T01:37:43.484Z,1.17
2022-12-03T01:40:44.762Z,1.16
2022-12-03T01:43:46.315Z,1.13
2022-12-03T01:46:48.233Z,1.13
2022-12-03T01:49:52.824Z,1.12
2022-12-03T01:52:55.584Z,1.09
2022-12-03T01:55:56.839Z,1.05
2022-12-03T01:58:58.107Z,1.04
2022-12-03T02:02:00.268Z,1.01
2022-12-03T02:05:05.804Z,1.00
2022-12-03T02:08:25.692Z,0.97
2022-12-03T02:11:31.599Z,0.95
2022-12-03T02:14:32.857Z,0.91
2022-12-03T02:17:34.195Z,0.90
2022-12-03T02:20:39.435Z,0.85
2022-12-03T02:23:45.452Z,0.80
2022-12-03T02:26:46.772Z,0.82
2022-12-03T02:29:48.137Z,0.82
2022-12-03T02:32:50.552Z,0.82
2022-12-03T02:35:51.836Z,0.80
2022-12-03T02:38:53.264Z,0.82
2022-12-03T02:41:54.535Z,0.76
2022-12-03T02:45:00.792Z,0.76
2022-12-03T02:48:08.377Z,0.73
2022-12-03T02:51:10.665Z,0.68
2022-12-03T02:54:11.926Z,0.65
2022-12-03T02:57:14.651Z,0.60
2022-12-03T03:00:16.846Z,0.58
2022-12-03T03:03:18.622Z,0.58
2022-12-03T03:06:20.670Z,0.56
2022-12-03T03:09:22.233Z,0.48
2022-12-03T03:12:23.490Z,0.46
2022-12-03T03:15:24.819Z,0.46
2022-12-03T03:18:26.079Z,0.43
2022-12-03T03:21:27.459Z,0.38
2022-12-03T03:24:28.760Z,0.38
2022-12-03T03:27:30.243Z,0.34
2022-12-03T03:30:32.075Z,0.33
2022-12-03T03:33:33.802Z,0.36
2022-12-03T03:36:35.376Z,0.29
2022-12-03T03:39:36.683Z,0.28
2022-12-03T03:42:38.253Z,0.29
2022-12-03T03:45:39.632Z,0.28
2022-12-03T03:48:42.932Z,0.23
2022-12-03T03:51:44.436Z,0.27
2022-12-03T03:54:46.564Z,0.24
2022-12-03T03:57:48.202Z,0.24
2022-12-03T04:00:51.346Z,0.23
2022-12-03T04:03:52.707Z,0.22
2022-12-03T04:06:54.032Z,0.20
2022-12-03T04:09:55.326Z,0.21
2022-12-03T04:12:56.634Z,0.16
2022-12-03T04:15:57.897Z,0.16
2022-12-03T04:18:59.165Z,0.16
2022-12-03T04:22:00.440Z,0.21
2022-12-03T04:25:01.725Z,0.19
2022-12-03T04:28:02.970Z,0.17
2022-12-03T04:31:04.337Z,0.18
2022-12-03T04:34:05.661Z,0.23
2022-12-03T04:37:06.921Z,0.21
2022-12-03T04:40:08.507Z,0.17
2022-12-03T04:43:09.777Z,0.15
2022-12-03T04:46:11.107Z,0.17
2022-12-03T04:49:12.459Z,0.16
2022-12-03T04:52:14.518Z,0.16
2022-12-03T04:55:15.778Z,0.16
2022-12-03T04:58:17.056Z,0.16
2022-12-03T05:01:18.337Z,0.11
2022-12-03T05:04:19.590Z,0.15
2022-12-03T05:07:20.830Z,0.17
2022-12-03T05:10:22.119Z,0.19
2022-12-03T05:13:23.375Z,0.19
2022-12-03T05:16:24.748Z,0.18
2022-12-03T05:19:26.039Z,0.19
2022-12-03T05:22:27.321Z,0.16
2022-12-03T05:25:28.711Z,0.14
2022-12-03T05:28:30.067Z,0.12
2022-12-03T05:31:31.465Z,0.09
2022-12-03T05:34:32.759Z,0.08
2022-12-03T05:37:34.035Z,0.04
2022-12-03T05:40:35.343Z,0.03
2022-12-03T05:43:36.612Z,0.00
2022-12-03T05:46:37.942Z,-0.01
2022-12-03T05:49:39.288Z,-0.02
2022-12-03T05:52:40.549Z,-0.08
2022-12-03T05:55:41.932Z,-0.09
2022-12-03T05:58:43.235Z,-0.10
2022-12-03T06:01:44.528Z,-0.06
2022-12-03T06:04:45.773Z,-0.08
2022-12-03T06:07:47.553Z,-0.11
2022-12-03T06:10:48.866Z,-0.16
2022-12-03T06:13:50.131Z,-0.22
2022-12-03T06:16:51.388Z,-0.20
2022-12-03T06:19:53.113Z,-0.21
2022-12-03T06:22:54.348Z,-0.26
2022-12-03T06:25:55.740Z,-0.25
2022-12-03T06:28:56.982Z,-0.27
2022-12-03T06:31:58.281Z,-0.26
2022-12-03T06:34:59.535Z,-0.26
2022-12-03T06:38:00.826Z,-0.27
2022-12-03T06:41:02.169Z,-0.28
2022-12-03T06:44:03.435Z,-0.28
2022-12-03T06:47:04.718Z,-0.27
2022-12-03T06:50:07.202Z,-0.26
2022-12-03T06:53:08.520Z,-0.26
2022-12-03T06:56:09.821Z,-0.27
2022-12-03T06:59:11.080Z,-0.30
2022-12-03T07:02:12.454Z,-0.33
2022-12-03T07:05:13.801Z,-0.32
2022-12-03T07:08:15.145Z,-0.36
2022-12-03T07:11:16.542Z,-0.36
2022-12-03T07:14:17.831Z,-0.38
2022-12-03T07:17:19.212Z,-0.36
2022-12-03T07:20:20.459Z,-0.33
2022-12-03T07:23:21.768Z,-0.37
2022-12-03T07:26:23.009Z,-0.33
2022-12-03T07:29:24.476Z,-0.35
2022-12-03T07:32:25.761Z,-0.34
2022-12-03T07:35:27.057Z,-0.31
2022-12-03T07:38:28.345Z,-0.33
2022-12-03T07:41:29.738Z,-0.33
2022-12-03T07:44:31.177Z,-0.41
2022-12-03T07:47:32.458Z,-0.42
2022-12-03T07:50:33.741Z,-0.42
2022-12-03T07:53:35.035Z,-0.40
2022-12-03T07:56:36.315Z,-0.44
2022-12-03T07:59:37.593Z,-0.46
2022-12-03T08:02:38.925Z,-0.51
2022-12-03T08:05:40.264Z,-0.53
2022-12-03T08:08:41.678Z,-0.54
2022-12-03T08:11:44.011Z,-0.53
2022-12-03T08:14:45.743Z,-0.54
2022-12-03T08:17:51.482Z,-0.51
2022-12-03T08:20:52.802Z,-0.50
2022-12-03T08:23:55.564Z,-0.52
2022-12-03T08:26:56.894Z,-0.49
2022-12-03T08:30:01.183Z,-0.45
2022-12-03T08:33:06.390Z,-0.46
2022-12-03T08:36:18.761Z,-0.52
2022-12-03T08:39:33.386Z,-0.47
2022-12-03T08:42:34.651Z,-0.44
2022-12-03T08:45:36.675Z,-0.38
2022-12-03T08:48:38.256Z,-0.36
2022-12-03T08:51:39.539Z,-0.40
2022-12-03T08:54:41.614Z,-0.39
2022-12-03T08:57:42.872Z,-0.34
2022-12-03T09:00:44.174Z,-0.34
2022-12-03T09:03:52.371Z,-0.27
2022-12-03T09:06:54.353Z,-0.28
2022-12-03T09:09:55.610Z,-0.25
2022-12-03T09:12:56.876Z,-0.34
2022-12-03T09:15:58.151Z,-0.40
2022-12-03T09:19:00.730Z,-0.30
2022-12-03T09:22:01.972Z,-0.22
2022-12-03T09:25:03.325Z,-0.16
2022-12-03T09:28:04.582Z,-0.16
2022-12-03T09:31:06.195Z,-0.18
2022-12-03T09:34:07.879Z,-0.01
2022-12-03T09:37:09.367Z,0.12
2022-12-03T09:40:10.931Z,0.10
2022-12-03T09:43:12.460Z,0.10
2022-12-03T09:46:13.799Z,0.14
2022-12-03T09:49:16.443Z,0.19
2022-12-03T09:52:23.232Z,0.21
2022-12-03T09:55:27.700Z,0.16
2022-12-03T09:58:34.305Z,0.03
2022-12-03T10:01:36.219Z,0.19
2022-12-03T10:04:37.589Z,0.30
2022-12-03T10:07:39.302Z,0.28
2022-12-03T10:10:41.624Z,0.21
2022-12-03T10:13:43.075Z,0.30
2022-12-03T10:16:44.618Z,0.38
2022-12-03T10:19:45.995Z,0.47
2022-12-03T10:22:47.237Z,0.47
2022-12-03T10:25:55.947Z,0.48
2022-12-03T10:28:57.199Z,0.59
2022-12-03T10:32:03.431Z,0.62
2022-12-03T10:35:23.863Z,0.65
2022-12-03T10:38:27.596Z,0.61
2022-12-03T10:41:28.904Z,0.55
2022-12-03T10:44:30.186Z,0.63
2022-12-03T10:47:31.637Z,0.74
2022-12-03T10:50:34.557Z,0.75
2022-12-03T10:53:37.301Z,0.74
2022-12-03T10:56:38.606Z,0.83
2022-12-03T10:59:41.361Z,0.89
2022-12-03T11:02:42.618Z,0.94
2022-12-03T11:05:43.947Z,0.91
2022-12-03T11:08:49.200Z,0.96
2022-12-03T11:11:53.207Z,1.05
2022-12-03T11:14:54.780Z,1.03
2022-12-03T11:17:56.261Z,1.00
2022-12-03T11:20:57.496Z,1.05
2022-12-03T11:23:58.743Z,1.09
2022-12-03T11:27:00.097Z,1.10
2022-12-03T11:30:01.467Z,1.12
2022-12-03T11:33:02.774Z,1.09
2022-12-03T11:36:04.065Z,1.13
2022-12-03T11:39:08.027Z,1.00
2022-12-03T11:42:21.571Z,0.93
2022-12-03T11:45:29.523Z,0.88
2022-12-03T11:48:30.843Z,0.79
2022-12-03T11:51:32.236Z,0.75
2022-12-03T11:54:34.332Z,0.72
2022-12-03T11:57:37.151Z,0.72
2022-12-03T12:00:38.579Z,0.71
2022-12-03T12:03:44.752Z,0.76
2022-12-03T12:06:48.768Z,0.80
2022-12-03T12:09:55.160Z,0.80
2022-12-03T12:12:56.701Z,0.88
2022-12-03T12:15:58.616Z,0.90
2022-12-03T12:19:19.932Z,0.85
2022-12-03T12:22:24.237Z,0.89
2022-12-03T12:25:36.117Z,0.89
2022-12-03T12:28:37.425Z,0.85
2022-12-03T12:31:38.795Z,0.80
2022-12-03T12:34:41.402Z,0.77
2022-12-03T12:37:49.299Z,0.74
2022-12-03T12:40:54.730Z,0.71
2022-12-03T12:43:56.003Z,0.71
2022-12-03T12:46:59.319Z,0.73
2022-12-03T12:50:01.235Z,0.79
2022-12-03T12:53:08.335Z,0.89
2022-12-03T12:56:28.132Z,0.70
2022-12-03T12:59:29.442Z,0.67
2022-12-03T13:02:30.740Z,0.71
2022-12-03T13:05:37.986Z,0.76
2022-12-03T13:08:41.390Z,0.70
2022-12-03T13:11:43.998Z,0.78
2022-12-03T13:14:45.444Z,0.87
2022-12-03T13:17:46.693Z,0.79
2022-12-03T13:20:48.169Z,0.71
2022-12-03T13:23:56.294Z,0.73
2022-12-03T13:26:58.055Z,0.83
2022-12-03T13:30:08.275Z,0.84
2022-12-03T13:33:14.272Z,0.78
2022-12-03T13:36:16.205Z,0.83
2022-12-03T13:39:20.348Z,0.84
2022-12-03T13:42:21.622Z,0.75
2022-12-03T13:45:22.861Z,0.76
2022-12-03T13:48:26.119Z,0.68
2022-12-03T13:51:31.569Z,0.64
2022-12-03T13:54:33.269Z,0.71
2022-12-03T13:57:34.513Z,0.70
2022-12-03T14:00:35.914Z,0.65
2022-12-03T14:03:37.249Z,0.55
2022-12-03T14:06:38.532Z,0.56
2022-12-03T14:09:39.822Z,0.49
2022-12-03T14:12:41.141Z,0.45
2022-12-03T14:15:42.432Z,0.48
2022-12-03T14:18:44.432Z,0.50
2022-12-03T14:21:45.698Z,0.44
2022-12-03T14:24:47.785Z,0.42
2022-12-03T14:27:49.021Z,0.43
2022-12-03T14:30:50.273Z,0.33
2022-12-03T14:33:51.510Z,0.35
2022-12-03T14:36:52.782Z,0.32
2022-12-03T14:39:54.381Z,0.32
2022-12-03T14:42:55.874Z,0.31
2022-12-03T14:45:57.196Z,0.28
2022-12-03T14:48:58.571Z,0.26
2022-12-03T14:51:59.971Z,0.29
2022-12-03T14:55:01.359Z,0.23
2022-12-03T14:58:02.631Z,0.24
2022-12-03T15:01:03.998Z,0.24
2022-12-03T15:04:05.294Z,0.17
2022-12-03T15:07:06.727Z,0.13
2022-12-03T15:10:08.205Z,0.11
2022-12-03T15:13:09.475Z,0.13
2022-12-03T15:16:10.808Z,0.12
2022-12-03T15:19:12.240Z,0.11
2022-12-03T15:22:13.532Z,0.11
2022-12-03T15:25:14.820Z,0.11
2022-12-03T15:28:16.191Z,0.12
2022-12-03T15:31:17.512Z,0.09
2022-12-03T15:34:22.495Z,0.06
2022-12-03T15:37:24.005Z,0.08
2022-12-03T15:40:25.761Z,0.06
2022-12-03T15:43:27.013Z,0.01
2022-12-03T15:46:28.689Z,-0.01
2022-12-03T15:49:30.084Z,-0.05
2022-12-03T15:52:31.344Z,-0.04
2022-12-03T15:55:33.728Z,-0.08
2022-12-03T15:58:35.054Z,-0.08
2022-12-03T16:01:36.413Z,-0.10
2022-12-03T16:04:37.737Z,-0.08
2022-12-03T16:07:39.418Z,-0.11
2022-12-03T16:10:40.762Z,-0.10
2022-12-03T16:13:42.003Z,-0.16
2022-12-03T16:16:43.276Z,-0.19
2022-12-03T16:19:44.525Z,-0.22
2022-12-03T16:22:45.783Z,-0.28
2022-12-03T16:25:47.047Z,-0.35
2022-12-03T16:28:48.306Z,-0.37
2022-12-03T16:31:49.567Z,-0.38
2022-12-03T16:34:50.824Z,-0.39
2022-12-03T16:37:52.098Z,-0.34
2022-12-03T16:40:53.355Z,-0.36
2022-12-03T16:43:54.619Z,-0.37
2022-12-03T16:46:55.977Z,-0.38
2022-12-03T16:49:57.336Z,-0.40
2022-12-03T16:52:58.591Z,-0.39
2022-12-03T16:56:00.097Z,-0.41
2022-12-03T16:59:01.335Z,-0.40
2022-12-03T17:02:02.718Z,-0.44
2022-12-03T17:05:04.091Z,-0.42
2022-12-03T17:08:05.514Z,-0.42
2022-12-03T17:11:06.984Z,-0.44
2022-12-03T17:14:08.360Z,-0.45
2022-12-03T17:17:09.616Z,-0.46
2022-12-03T17:20:10.924Z,-0.45
2022-12-03T17:23:12.249Z,-0.45
2022-12-03T17:26:13.634Z,-0.45
2022-12-03T17:29:14.898Z,-0.48
2022-12-03T17:32:16.158Z,-0.47
2022-12-03T17:35:18.070Z,-0.49
2022-12-03T17:38:19.333Z,-0.49
2022-12-03T17:41:20.581Z,-0.51
2022-12-03T17:44:24.282Z,-0.46
2022-12-03T17:47:25.534Z,-0.42
2022-12-03T17:50:26.771Z,-0.43
2022-12-03T17:53:28.071Z,-0.42
2022-12-03T17:56:29.315Z,-0.44
2022-12-03T17:59:30.578Z,-0.41
2022-12-03T18:02:31.806Z,-0.41
2022-12-03T18:05:33.079Z,-0.41
2022-12-03T18:08:34.339Z,-0.39
2022-12-03T18:11:35.627Z,-0.38
2022-12-03T18:14:36.882Z,-0.37
2022-12-03T18:17:38.147Z,-0.33
2022-12-03T18:20:39.442Z,-0.31
2022-12-03T18:23:40.869Z,-0.31
2022-12-03T18:26:42.135Z,-0.31
2022-12-03T18:29:43.398Z,-0.28
2022-12-03T18:32:44.675Z,-0.26
2022-12-03T18:35:45.984Z,-0.23
2022-12-03T18:38:48.182Z,-0.24
2022-12-03T18:41:49.498Z,-0.23
2022-12-03T18:44:51.847Z,-0.18
2022-12-03T18:47:53.124Z,-0.19
2022-12-03T18:50:54.484Z,-0.19
2022-12-03T18:53:56.006Z,-0.16
2022-12-03T18:56:57.316Z,-0.15
2022-12-03T18:59:58.847Z,-0.17
2022-12-03T19:03:03.603Z,-0.17
2022-12-03T19:06:05.389Z,-0.14
2022-12-03T19:09:06.699Z,-0.16
2022-12-03T19:12:14.462Z,-0.14
2022-12-03T19:15:16.091Z,-0.18
2022-12-03T19:18:17.886Z,-0.21
2022-12-03T19:21:19.158Z,-0.20
2022-12-03T19:24:25.142Z,-0.21
2022-12-03T19:27:28.109Z,-0.20
2022-12-03T19:30:29.367Z,-0.24
2022-12-03T19:33:31.111Z,-0.36
2022-12-03T19:36:32.377Z,-0.45
2022-12-03T19:39:33.763Z,-0.52
2022-12-03T19:42:35.023Z,-0.53
2022-12-03T19:45:36.657Z,-0.55
2022-12-03T19:48:39.266Z,-0.60
2022-12-03T19:51:40.528Z,-0.59
2022-12-03T19:54:41.824Z,-0.58
2022-12-03T19:57:43.099Z,-0.61
2022-12-03T20:00:44.351Z,-0.61
2022-12-03T20:03:46.964Z,-0.59
2022-12-03T20:06:48.233Z,-0.60
2022-12-03T20:09:50.047Z,-0.61
2022-12-03T20:12:51.322Z,-0.62
2022-12-03T20:15:52.594Z,-0.61
2022-12-03T20:18:58.716Z,-0.65
2022-12-03T20:22:02.847Z,-0.66
2022-12-03T20:25:04.551Z,-0.67
2022-12-03T20:28:05.820Z,-0.71
2022-12-03T20:31:08.305Z,-0.70
2022-12-03T20:34:09.948Z,-0.69
2022-12-03T20:37:11.224Z,-0.69
2022-12-03T20:40:12.581Z,-0.73
2022-12-03T20:43:13.971Z,-0.78
2022-12-03T20:46:16.932Z,-0.79
2022-12-03T20:49:18.365Z,-0.79
2022-12-03T20:52:19.617Z,-0.79
2022-12-03T20:55:20.930Z,-0.84
2022-12-03T20:58:22.210Z,-0.87
2022-12-03T21:01:24.827Z,-0.89
2022-12-03T21:04:26.210Z,-0.89
2022-12-03T21:07:27.682Z,-1.00
2022-12-03T21:10:29.008Z,-1.04
2022-12-03T21:13:32.423Z,-1.03
2022-12-03T21:16:59.682Z,-0.96
2022-12-03T21:19:55.565Z,-0.96
2022-12-03T21:22:57.002Z,-0.97
2022-12-03T21:26:06.155Z,-1.03
2022-12-03T21:29:07.463Z,-1.04
2022-12-03T21:32:08.772Z,-1.07
2022-12-03T21:35:10.023Z,-1.16
2022-12-03T21:38:11.323Z,-1.17
2022-12-03T21:41:12.625Z,-1.16
2022-12-03T21:44:13.916Z,-1.24
2022-12-03T21:47:15.240Z,-1.24
2022-12-03T21:50:16.880Z,-1.26
2022-12-03T21:53:18.176Z,-1.29
2022-12-03T21:56:19.925Z,-1.34
2022-12-03T21:59:21.277Z,-1.29
2022-12-03T22:02:22.603Z,-1.35
2022-12-03T22:05:23.938Z,-1.39
2022-12-03T22:08:25.227Z,-1.37
2022-12-03T22:11:26.498Z,-1.47
2022-12-03T22:14:28.281Z,-1.54
2022-12-03T22:17:29.569Z,-1.52
2022-12-03T22:20:30.866Z,-1.54
2022-12-03T22:23:32.517Z,-1.54
2022-12-03T22:26:35.254Z,-1.58
2022-12-03T22:29:36.662Z,-1.63
2022-12-03T22:32:37.930Z,-1.74
2022-12-03T22:35:39.187Z,-1.81
2022-12-03T22:38:40.450Z,-1.85
2022-12-03T22:41:41.707Z,-1.92
2022-12-03T22:44:42.978Z,-1.95
2022-12-03T22:47:44.278Z,-1.90
2022-12-03T22:50:46.305Z,-1.86
2022-12-03T22:53:48.079Z,-1.80
2022-12-03T22:56:49.374Z,-1.75
2022-12-03T22:59:50.655Z,-1.73
2022-12-03T23:02:51.984Z,-1.76
2022-12-03T23:05:53.311Z,-1.71
2022-12-03T23:08:55.106Z,-1.69
2022-12-03T23:11:56.411Z,-1.66
2022-12-03T23:14:57.687Z,-1.65
2022-12-03T23:17:59.023Z,-1.64
2022-12-03T23:21:00.612Z,-1.60
2022-12-03T23:24:02.967Z,-1.56
2022-12-03T23:27:04.247Z,-1.58
2022-12-03T23:30:05.909Z,-1.64
2022-12-03T23:33:07.196Z,-1.60
2022-12-03T23:36:08.687Z,-1.58
2022-12-03T23:39:10.114Z,-1.59
2022-12-03T23:42:11.371Z,-1.55
2022-12-03T23:45:12.649Z,-1.55
2022-12-03T23:48:13.977Z,-1.56
2022-12-03T23:51:17.248Z,-1.65
2022-12-03T23:54:18.528Z,-1.62
2022-12-03T23:57:19.809Z,-1.59
